createdAt,value
2017-09-17T00:00:47.067Z,0
2017-09-17T00:01:47.066Z,0
2017-09-17T00:02:47.111Z,0
2017-09-17T00:03:47.005Z,0
2017-09-17T00:04:47.107Z,0
2017-09-17T00:05:47.067Z,0
2017-09-17T00:06:47.033Z,0
2017-09-17T00:07:47.008Z,0
2017-09-17T00:08:47.068Z,0
2017-09-17T00:09:47.078Z,0
2017-09-17T00:10:47.009Z,0
2017-09-17T00:11:47.071Z,0
2017-09-17T00:12:47.036Z,0
2017-09-17T00:13:47.170Z,0
2017-09-17T00:14:47.072Z,0
2017-09-17T00:15:47.072Z,0
2017-09-17T00:16:47.072Z,0
2017-09-17T00:17:47.059Z,0
2017-09-17T00:18:47.080Z,0
2017-09-17T00:19:47.126Z,0
2017-09-17T00:20:47.103Z,0
2017-09-17T00:21:47.031Z,0
2017-09-17T00:22:47.124Z,0
2017-09-17T00:23:47.131Z,0
2017-09-17T00:24:47.240Z,0
2017-09-17T00:25:47.086Z,0
2017-09-17T00:26:47.132Z,0
2017-09-17T00:27:47.084Z,0
2017-09-17T00:28:47.175Z,0
2017-09-17T00:29:47.094Z,0
2017-09-17T00:30:47.084Z,0
2017-09-17T00:31:47.084Z,0
2017-09-17T00:32:47.154Z,0
2017-09-17T00:33:47.088Z,0
2017-09-17T00:34:47.093Z,0
2017-09-17T00:35:47.098Z,0
2017-09-17T00:36:47.085Z,0
2017-09-17T00:37:47.090Z,0
2017-09-17T00:38:47.092Z,0
2017-09-17T00:39:47.041Z,0
2017-09-17T00:40:47.093Z,0
2017-09-17T00:41:47.088Z,0
2017-09-17T00:42:47.155Z,0
2017-09-17T00:43:47.139Z,0
2017-09-17T00:44:47.266Z,0
2017-09-17T00:45:47.143Z,0
2017-09-17T00:46:47.144Z,0
2017-09-17T00:47:47.051Z,0
2017-09-17T00:48:47.148Z,0
2017-09-17T00:49:47.100Z,0
2017-09-17T00:50:47.100Z,0
2017-09-17T00:51:47.149Z,0
2017-09-17T00:52:47.106Z,0
2017-09-17T00:53:47.046Z,0
2017-09-17T00:54:47.168Z,0
2017-09-17T00:55:47.097Z,0
2017-09-17T00:56:47.169Z,0
2017-09-17T00:57:47.053Z,0
2017-09-17T00:58:47.180Z,0
2017-09-17T00:59:47.115Z,0
2017-09-17T01:00:47.099Z,0
2017-09-17T01:01:47.152Z,0
2017-09-17T01:02:47.054Z,0
2017-09-17T01:03:47.067Z,0
2017-09-17T01:04:47.100Z,0
2017-09-17T01:05:47.102Z,0
2017-09-17T01:06:47.076Z,0
2017-09-17T01:07:47.069Z,0
2017-09-17T01:08:47.069Z,0
2017-09-17T01:09:47.044Z,0
2017-09-17T01:10:47.074Z,0
2017-09-17T01:11:47.044Z,0
2017-09-17T01:12:47.119Z,0
2017-09-17T01:13:47.114Z,0
2017-09-17T01:14:47.166Z,0
2017-09-17T01:15:47.063Z,0
2017-09-17T01:16:47.115Z,0
2017-09-17T01:17:47.156Z,0
2017-09-17T01:18:47.160Z,0
2017-09-17T01:19:47.164Z,0
2017-09-17T01:20:47.095Z,0
2017-09-17T01:21:47.072Z,0
2017-09-17T01:22:47.158Z,0
2017-09-17T01:23:47.158Z,0
2017-09-17T01:24:47.163Z,0
2017-09-17T01:25:47.130Z,0
2017-09-17T01:26:47.130Z,0
2017-09-17T01:27:47.161Z,0
2017-09-17T01:28:47.121Z,0
2017-09-17T01:29:47.186Z,0
2017-09-17T01:30:47.173Z,0
2017-09-17T01:31:47.166Z,0
2017-09-17T01:32:47.169Z,0
2017-09-17T01:33:47.073Z,0
2017-09-17T01:34:47.047Z,0
2017-09-17T01:35:47.080Z,0
2017-09-17T01:36:47.048Z,0
2017-09-17T01:37:47.073Z,0
2017-09-17T01:38:47.051Z,0
2017-09-17T01:39:47.090Z,0
2017-09-17T01:40:47.061Z,0
2017-09-17T01:41:47.060Z,0
2017-09-17T01:42:47.062Z,0
2017-09-17T01:43:47.106Z,0
2017-09-17T01:44:47.069Z,0
2017-09-17T01:45:47.162Z,0
2017-09-17T01:46:47.137Z,0
2017-09-17T01:47:47.177Z,0
2017-09-17T01:48:47.103Z,0
2017-09-17T01:49:47.076Z,0
2017-09-17T01:50:47.105Z,0
2017-09-17T01:51:47.144Z,0
2017-09-17T01:52:47.108Z,0
2017-09-17T01:53:47.080Z,0
2017-09-17T01:54:47.130Z,0
2017-09-17T01:55:47.172Z,0
2017-09-17T01:56:47.147Z,0
2017-09-17T01:57:47.145Z,0
2017-09-17T01:58:47.112Z,0
2017-09-17T01:59:47.132Z,0
2017-09-17T02:00:47.091Z,0
2017-09-17T02:01:47.091Z,0
2017-09-17T02:02:47.115Z,0
2017-09-17T02:03:47.121Z,0
2017-09-17T02:04:47.093Z,0
2017-09-17T02:05:47.184Z,0
2017-09-17T02:06:47.162Z,0
2017-09-17T02:07:47.121Z,0
2017-09-17T02:08:47.161Z,0
2017-09-17T02:09:47.186Z,0
2017-09-17T02:10:47.097Z,0
2017-09-17T02:11:47.211Z,0
2017-09-17T02:12:47.093Z,0
2017-09-17T02:13:47.194Z,0
2017-09-17T02:14:47.194Z,0
2017-09-17T02:15:47.199Z,0
2017-09-17T02:16:47.147Z,0
2017-09-17T02:17:47.147Z,0
2017-09-17T02:18:47.151Z,0
2017-09-17T02:19:47.198Z,0
2017-09-17T02:20:47.145Z,0
2017-09-17T02:21:47.153Z,0
2017-09-17T02:22:47.108Z,0
2017-09-17T02:23:47.154Z,0
2017-09-17T02:24:47.088Z,0
2017-09-17T02:25:47.158Z,0
2017-09-17T02:26:47.154Z,0
2017-09-17T02:27:47.120Z,0
2017-09-17T02:28:47.176Z,0
2017-09-17T02:29:47.156Z,0
2017-09-17T02:30:47.156Z,0
2017-09-17T02:31:47.125Z,0
2017-09-17T02:32:47.092Z,0
2017-09-17T02:33:47.125Z,0
2017-09-17T02:34:47.169Z,0
2017-09-17T02:35:47.125Z,0
2017-09-17T02:36:47.154Z,0
2017-09-17T02:37:47.207Z,0
2017-09-17T02:38:47.135Z,0
2017-09-17T02:39:47.116Z,0
2017-09-17T02:40:47.127Z,0
2017-09-17T02:41:47.142Z,0
2017-09-17T02:42:47.174Z,0
2017-09-17T02:43:47.146Z,0
2017-09-17T02:44:47.115Z,0
2017-09-17T02:45:47.114Z,0
2017-09-17T02:46:47.170Z,0
2017-09-17T02:47:47.210Z,0
2017-09-17T02:48:47.240Z,0
2017-09-17T02:49:47.211Z,0
2017-09-17T02:50:47.195Z,0
2017-09-17T02:51:47.219Z,0
2017-09-17T02:52:47.169Z,0
2017-09-17T02:53:47.184Z,0
2017-09-17T02:54:47.151Z,0
2017-09-17T02:55:47.172Z,0
2017-09-17T02:56:47.120Z,0
2017-09-17T02:57:47.215Z,0
2017-09-17T02:58:47.118Z,0
2017-09-17T02:59:47.200Z,0
2017-09-17T03:00:47.215Z,0
2017-09-17T03:01:47.181Z,0
2017-09-17T03:02:47.174Z,0
2017-09-17T03:03:47.172Z,0
2017-09-17T03:04:47.248Z,0
2017-09-17T03:05:47.223Z,0
2017-09-17T03:06:47.129Z,0
2017-09-17T03:07:47.131Z,0
2017-09-17T03:08:47.180Z,0
2017-09-17T03:09:47.176Z,0
2017-09-17T03:10:47.179Z,0
2017-09-17T03:11:47.180Z,0
2017-09-17T03:12:47.180Z,0
2017-09-17T03:13:47.187Z,0
2017-09-17T03:14:47.234Z,0
2017-09-17T03:15:47.179Z,0
2017-09-17T03:16:47.187Z,0
2017-09-17T03:17:47.188Z,0
2017-09-17T03:18:47.183Z,0
2017-09-17T03:19:47.226Z,0
2017-09-17T03:20:47.166Z,0
2017-09-17T03:21:47.182Z,0
2017-09-17T03:22:47.233Z,0
2017-09-17T03:23:47.184Z,0
2017-09-17T03:24:47.185Z,0
2017-09-17T03:25:47.202Z,0
2017-09-17T03:26:47.197Z,0
2017-09-17T03:27:47.182Z,0
2017-09-17T03:28:47.135Z,0
2017-09-17T03:29:47.161Z,0
2017-09-17T03:30:47.204Z,0
2017-09-17T03:31:47.190Z,0
2017-09-17T03:32:47.199Z,0
2017-09-17T03:33:47.206Z,0
2017-09-17T03:34:47.163Z,0
2017-09-17T03:35:47.206Z,0
2017-09-17T03:36:47.211Z,0
2017-09-17T03:37:47.165Z,0
2017-09-17T03:38:47.236Z,0
2017-09-17T03:39:47.145Z,0
2017-09-17T03:40:47.217Z,0
2017-09-17T03:41:47.172Z,0
2017-09-17T03:42:47.204Z,0
2017-09-17T03:43:47.173Z,0
2017-09-17T03:44:47.245Z,0
2017-09-17T03:45:47.183Z,0
2017-09-17T03:46:47.201Z,0
2017-09-17T03:47:47.248Z,0
2017-09-17T03:48:47.230Z,0
2017-09-17T03:49:47.345Z,0
2017-09-17T03:50:47.204Z,0
2017-09-17T03:51:47.253Z,0
2017-09-17T03:52:47.205Z,0
2017-09-17T03:53:47.160Z,0
2017-09-17T03:54:47.257Z,0
2017-09-17T03:55:47.158Z,0
2017-09-17T03:56:47.253Z,0
2017-09-17T03:57:47.236Z,0
2017-09-17T03:58:47.208Z,0
2017-09-17T03:59:47.189Z,0
2017-09-17T04:00:47.210Z,0
2017-09-17T04:01:47.256Z,0
2017-09-17T04:02:47.368Z,0
2017-09-17T04:03:47.214Z,0
2017-09-17T04:04:47.212Z,0
2017-09-17T04:05:47.187Z,0
2017-09-17T04:06:47.176Z,0
2017-09-17T04:07:47.252Z,0
2017-09-17T04:08:47.251Z,0
2017-09-17T04:09:47.223Z,0
2017-09-17T04:10:47.230Z,0
2017-09-17T04:11:47.225Z,0
2017-09-17T04:12:47.224Z,0
2017-09-17T04:13:47.261Z,0
2017-09-17T04:14:47.217Z,0
2017-09-17T04:15:47.343Z,0
2017-09-17T04:16:47.186Z,0
2017-09-17T04:17:47.191Z,0
2017-09-17T04:18:47.161Z,0
2017-09-17T04:19:47.157Z,0
2017-09-17T04:20:47.159Z,0
2017-09-17T04:21:47.160Z,0
2017-09-17T04:22:47.191Z,0
2017-09-17T04:23:47.192Z,0
2017-09-17T04:24:47.271Z,0
2017-09-17T04:25:47.281Z,0
2017-09-17T04:26:47.228Z,0
2017-09-17T04:27:47.277Z,4
2017-09-17T04:28:47.274Z,4
2017-09-17T04:29:47.181Z,4
2017-09-17T04:30:47.233Z,0
2017-09-17T04:31:47.236Z,4
2017-09-17T04:32:47.278Z,4
2017-09-17T04:33:47.248Z,8
2017-09-17T04:34:47.249Z,4
2017-09-17T04:35:47.278Z,8
2017-09-17T04:36:47.229Z,8
2017-09-17T04:37:47.242Z,12
2017-09-17T04:38:47.225Z,12
2017-09-17T04:39:47.234Z,12
2017-09-17T04:40:47.214Z,16
2017-09-17T04:41:47.305Z,20
2017-09-17T04:42:47.232Z,24
2017-09-17T04:43:47.281Z,28
2017-09-17T04:44:47.282Z,28
2017-09-17T04:45:47.209Z,36
2017-09-17T04:46:47.195Z,40
2017-09-17T04:47:47.231Z,48
2017-09-17T04:48:47.233Z,56
2017-09-17T04:49:47.229Z,64
2017-09-17T04:50:47.210Z,72
2017-09-17T04:51:47.231Z,88
2017-09-17T04:52:47.183Z,100
2017-09-17T04:53:47.193Z,112
2017-09-17T04:54:47.209Z,128
2017-09-17T04:55:47.315Z,140
2017-09-17T04:56:47.323Z,156
2017-09-17T04:57:47.259Z,184
2017-09-17T04:58:47.194Z,200
2017-09-17T04:59:47.289Z,220
2017-09-17T05:00:47.288Z,244
2017-09-17T05:01:47.228Z,272
2017-09-17T05:02:47.319Z,296
2017-09-17T05:03:47.292Z,324
2017-09-17T05:04:47.409Z,356
2017-09-17T05:05:47.200Z,396
2017-09-17T05:06:47.299Z,436
2017-09-17T05:07:47.321Z,464
2017-09-17T05:08:47.300Z,516
2017-09-17T05:09:47.249Z,544
2017-09-17T05:10:47.297Z,592
2017-09-17T05:11:47.293Z,660
2017-09-17T05:12:47.233Z,716
2017-09-17T05:13:47.253Z,760
2017-09-17T05:14:47.224Z,808
2017-09-17T05:15:47.201Z,828
2017-09-17T05:16:47.248Z,856
2017-09-17T05:17:47.282Z,880
2017-09-17T05:18:47.205Z,920
2017-09-17T05:19:47.202Z,928
2017-09-17T05:20:47.303Z,940
2017-09-17T05:21:47.230Z,996
2017-09-17T05:22:47.206Z,1068
2017-09-17T05:23:47.227Z,1124
2017-09-17T05:24:47.283Z,1156
2017-09-17T05:25:47.199Z,1236
2017-09-17T05:26:47.256Z,1344
2017-09-17T05:27:47.256Z,1416
2017-09-17T05:28:47.226Z,1468
2017-09-17T05:29:47.232Z,1532
2017-09-17T05:30:47.226Z,1636
2017-09-17T05:31:47.261Z,1708
2017-09-17T05:32:47.228Z,1744
2017-09-17T05:33:47.225Z,1764
2017-09-17T05:34:47.217Z,1808
2017-09-17T05:35:47.268Z,1876
2017-09-17T05:36:47.270Z,1992
2017-09-17T05:37:47.265Z,2180
2017-09-17T05:38:47.371Z,2416
2017-09-17T05:39:47.316Z,2672
2017-09-17T05:40:47.315Z,2852
2017-09-17T05:41:47.312Z,3008
2017-09-17T05:42:47.318Z,3128
2017-09-17T05:43:47.279Z,3248
2017-09-17T05:44:47.319Z,3336
2017-09-17T05:45:47.344Z,3372
2017-09-17T05:46:47.254Z,3424
2017-09-17T05:47:47.253Z,3492
2017-09-17T05:48:47.275Z,3496
2017-09-17T05:49:47.278Z,3560
2017-09-17T05:50:47.270Z,3660
2017-09-17T05:51:47.314Z,3760
2017-09-17T05:52:47.224Z,3852
2017-09-17T05:53:47.276Z,3944
2017-09-17T05:54:47.250Z,4060
2017-09-17T05:55:47.323Z,4220
2017-09-17T05:56:47.299Z,4400
2017-09-17T05:57:47.225Z,4616
2017-09-17T05:58:47.330Z,4816
2017-09-17T05:59:47.260Z,5032
2017-09-17T06:00:47.260Z,5272
2017-09-17T06:01:47.281Z,5480
2017-09-17T06:02:47.318Z,5748
2017-09-17T06:03:47.329Z,5968
2017-09-17T06:04:47.335Z,6216
2017-09-17T06:05:47.287Z,6448
2017-09-17T06:06:47.278Z,6608
2017-09-17T06:07:47.285Z,6764
2017-09-17T06:08:47.294Z,7036
2017-09-17T06:09:47.264Z,7400
2017-09-17T06:10:47.280Z,7772
2017-09-17T06:11:47.341Z,8092
2017-09-17T06:12:47.287Z,8400
2017-09-17T06:13:47.294Z,8784
2017-09-17T06:14:47.298Z,8988
2017-09-17T06:15:47.253Z,9172
2017-09-17T06:16:47.291Z,9372
2017-09-17T06:17:47.261Z,9732
2017-09-17T06:18:47.225Z,10048
2017-09-17T06:19:47.230Z,10400
2017-09-17T06:20:47.231Z,10664
2017-09-17T06:21:47.269Z,10992
2017-09-17T06:22:47.303Z,11372
2017-09-17T06:23:47.325Z,11792
2017-09-17T06:24:47.271Z,12144
2017-09-17T06:25:47.293Z,12428
2017-09-17T06:26:47.254Z,12672
2017-09-17T06:27:47.297Z,12948
2017-09-17T06:28:47.275Z,13376
2017-09-17T06:29:47.343Z,13852
2017-09-17T06:30:47.308Z,14296
2017-09-17T06:31:47.344Z,14524
2017-09-17T06:32:47.336Z,14556
2017-09-17T06:33:47.294Z,14688
2017-09-17T06:34:47.263Z,15128
2017-09-17T06:35:47.294Z,15656
2017-09-17T06:36:47.295Z,16272
2017-09-17T06:37:47.296Z,17000
2017-09-17T06:38:47.301Z,17120
2017-09-17T06:39:47.240Z,17000
2017-09-17T06:40:47.302Z,17456
2017-09-17T06:41:47.297Z,18164
2017-09-17T06:42:47.241Z,18712
2017-09-17T06:43:47.266Z,18800
2017-09-17T06:44:47.300Z,18984
2017-09-17T06:45:47.268Z,19336
2017-09-17T06:46:47.267Z,19560
2017-09-17T06:47:47.305Z,19524
2017-09-17T06:48:47.243Z,19384
2017-09-17T06:49:47.271Z,21728
2017-09-17T06:50:47.245Z,19488
2017-09-17T06:51:47.271Z,19656
2017-09-17T06:52:47.305Z,19592
2017-09-17T06:53:47.310Z,19296
2017-09-17T06:54:47.221Z,19112
2017-09-17T06:55:47.272Z,19116
2017-09-17T06:56:47.260Z,19116
2017-09-17T06:57:47.203Z,18964
2017-09-17T06:58:47.303Z,18860
2017-09-17T06:59:47.227Z,19104
2017-09-17T07:00:47.248Z,19564
2017-09-17T07:01:47.276Z,19688
2017-09-17T07:02:47.273Z,19592
2017-09-17T07:03:47.230Z,19776
2017-09-17T07:04:47.314Z,20292
2017-09-17T07:05:47.279Z,21280
2017-09-17T07:06:47.310Z,24928
2017-09-17T07:07:47.286Z,22368
2017-09-17T07:08:47.317Z,23104
2017-09-17T07:09:47.325Z,24256
2017-09-17T07:10:47.321Z,25120
2017-09-17T07:11:47.252Z,25696
2017-09-17T07:12:47.315Z,25952
2017-09-17T07:13:47.315Z,26240
2017-09-17T07:14:47.265Z,26592
2017-09-17T07:15:47.300Z,27808
2017-09-17T07:16:47.327Z,28704
2017-09-17T07:17:47.270Z,28384
2017-09-17T07:18:47.267Z,28896
2017-09-17T07:19:47.291Z,29312
2017-09-17T07:20:47.268Z,32128
2017-09-17T07:21:47.306Z,30304
2017-09-17T07:22:47.337Z,30816
2017-09-17T07:23:47.320Z,33664
2017-09-17T07:24:47.275Z,33888
2017-09-17T07:25:47.404Z,41472
2017-09-17T07:26:47.278Z,36224
2017-09-17T07:27:47.381Z,37088
2017-09-17T07:28:47.378Z,36096
2017-09-17T07:29:47.277Z,44928
2017-09-17T07:30:47.379Z,44096
2017-09-17T07:31:47.274Z,36896
2017-09-17T07:32:47.312Z,37792
2017-09-17T07:33:47.352Z,37728
2017-09-17T07:34:47.368Z,40064
2017-09-17T07:35:47.376Z,43840
2017-09-17T07:36:47.343Z,39808
2017-09-17T07:37:47.369Z,47584
2017-09-17T07:38:47.300Z,41536
2017-09-17T07:39:47.379Z,41568
2017-09-17T07:40:47.286Z,36832
2017-09-17T07:41:47.333Z,48480
2017-09-17T07:42:47.314Z,37280
2017-09-17T07:43:47.281Z,38848
2017-09-17T07:44:47.367Z,47936
2017-09-17T07:45:47.286Z,35488
2017-09-17T07:46:47.342Z,37056
2017-09-17T07:47:47.349Z,35072
2017-09-17T07:48:47.323Z,44064
2017-09-17T07:49:47.294Z,42912
2017-09-17T07:50:47.393Z,48928
2017-09-17T07:51:47.390Z,51232
2017-09-17T07:52:47.346Z,45600
2017-09-17T07:53:47.327Z,38688
2017-09-17T07:54:47.344Z,36000
2017-09-17T07:55:47.505Z,49184
2017-09-17T07:56:47.397Z,48800
2017-09-17T07:57:47.329Z,45504
2017-09-17T07:58:47.396Z,36576
2017-09-17T07:59:47.311Z,33792
2017-09-17T08:00:47.401Z,37120
2017-09-17T08:01:47.400Z,33184
2017-09-17T08:02:47.358Z,31040
2017-09-17T08:03:47.330Z,45472
2017-09-17T08:04:47.401Z,46080
2017-09-17T08:05:47.396Z,38816
2017-09-17T08:06:47.300Z,38112
2017-09-17T08:07:47.401Z,27584
2017-09-17T08:08:47.345Z,49664
2017-09-17T08:09:47.377Z,42656
2017-09-17T08:10:47.355Z,65792
2017-09-17T08:11:47.354Z,68288
2017-09-17T08:12:47.303Z,59904
2017-09-17T08:13:47.404Z,79616
2017-09-17T08:14:47.319Z,77952
2017-09-17T08:15:47.408Z,115872
2017-09-17T08:16:47.539Z,123584
2017-09-17T08:17:47.390Z,116704
2017-09-17T08:18:47.309Z,68448
2017-09-17T08:19:47.365Z,102144
2017-09-17T08:20:47.402Z,97024
2017-09-17T08:21:47.410Z,124576
2017-09-17T08:22:47.411Z,183872
2017-09-17T08:23:47.361Z,82016
2017-09-17T08:24:47.391Z,70656
2017-09-17T08:25:47.417Z,71936
2017-09-17T08:26:47.312Z,84448
2017-09-17T08:27:47.363Z,78304
2017-09-17T08:28:47.345Z,78592
2017-09-17T08:29:47.328Z,70496
2017-09-17T08:30:47.354Z,89024
2017-09-17T08:31:47.348Z,91872
2017-09-17T08:32:47.367Z,92512
2017-09-17T08:33:47.423Z,94144
2017-09-17T08:34:47.416Z,94112
2017-09-17T08:35:47.336Z,90656
2017-09-17T08:36:47.420Z,85312
2017-09-17T08:37:47.418Z,90304
2017-09-17T08:38:47.401Z,91712
2017-09-17T08:39:47.419Z,92608
2017-09-17T08:40:47.379Z,92320
2017-09-17T08:41:47.378Z,91328
2017-09-17T08:42:47.373Z,90880
2017-09-17T08:43:47.414Z,91072
2017-09-17T08:44:47.377Z,90496
2017-09-17T08:45:47.373Z,82240
2017-09-17T08:46:47.322Z,96736
2017-09-17T08:47:47.468Z,102912
2017-09-17T08:48:47.429Z,104192
2017-09-17T08:49:47.357Z,103136
2017-09-17T08:50:47.354Z,102304
2017-09-17T08:51:47.381Z,104064
2017-09-17T08:52:47.375Z,93120
2017-09-17T08:53:47.382Z,103552
2017-09-17T08:54:47.330Z,98080
2017-09-17T08:55:47.420Z,105216
2017-09-17T08:56:47.321Z,108928
2017-09-17T08:57:47.387Z,113376
2017-09-17T08:58:47.452Z,112768
2017-09-17T08:59:47.421Z,114528
2017-09-17T09:00:47.419Z,101632
2017-09-17T09:01:47.362Z,75552
2017-09-17T09:02:47.362Z,96096
2017-09-17T09:03:47.363Z,132768
2017-09-17T09:04:47.382Z,126016
2017-09-17T09:05:47.332Z,108992
2017-09-17T09:06:47.344Z,119680
2017-09-17T09:07:47.369Z,93344
2017-09-17T09:08:47.416Z,63680
2017-09-17T09:09:47.355Z,61568
2017-09-17T09:10:47.335Z,92000
2017-09-17T09:11:47.386Z,84192
2017-09-17T09:12:47.384Z,65632
2017-09-17T09:13:47.334Z,59808
2017-09-17T09:14:47.394Z,57600
2017-09-17T09:15:47.464Z,56256
2017-09-17T09:16:47.440Z,58592
2017-09-17T09:17:47.401Z,63072
2017-09-17T09:18:47.398Z,65600
2017-09-17T09:19:47.421Z,122400
2017-09-17T09:20:47.398Z,93312
2017-09-17T09:21:47.499Z,93760
2017-09-17T09:22:47.447Z,143392
2017-09-17T09:23:47.474Z,137344
2017-09-17T09:24:47.446Z,131872
2017-09-17T09:25:47.402Z,125920
2017-09-17T09:26:47.353Z,121216
2017-09-17T09:27:47.378Z,116896
2017-09-17T09:28:47.445Z,111904
2017-09-17T09:29:47.349Z,112864
2017-09-17T09:30:47.401Z,114272
2017-09-17T09:31:47.477Z,114432
2017-09-17T09:32:47.477Z,118496
2017-09-17T09:33:47.385Z,117664
2017-09-17T09:34:47.517Z,117696
2017-09-17T09:35:47.450Z,120832
2017-09-17T09:36:47.388Z,124288
2017-09-17T09:37:47.350Z,126464
2017-09-17T09:38:47.452Z,131136
2017-09-17T09:39:47.453Z,133472
2017-09-17T09:40:47.393Z,137120
2017-09-17T09:41:47.410Z,66368
2017-09-17T09:42:47.453Z,69696
2017-09-17T09:43:47.365Z,64704
2017-09-17T09:44:47.359Z,69088
2017-09-17T09:45:47.372Z,73984
2017-09-17T09:46:47.352Z,76960
2017-09-17T09:47:47.412Z,146624
2017-09-17T09:48:47.345Z,130528
2017-09-17T09:49:47.435Z,109216
2017-09-17T09:50:47.409Z,85568
2017-09-17T09:51:47.377Z,79520
2017-09-17T09:52:47.414Z,74432
2017-09-17T09:53:47.352Z,76768
2017-09-17T09:54:47.413Z,58720
2017-09-17T09:55:47.401Z,52032
2017-09-17T09:56:47.380Z,84000
2017-09-17T09:57:47.602Z,53856
2017-09-17T09:58:47.396Z,52512
2017-09-17T09:59:47.466Z,85312
2017-09-17T10:00:47.422Z,141216
2017-09-17T10:01:47.574Z,110144
2017-09-17T10:02:47.422Z,72384
2017-09-17T10:03:47.433Z,89504
2017-09-17T10:04:47.468Z,59168
2017-09-17T10:05:47.384Z,56128
2017-09-17T10:06:47.475Z,71232
2017-09-17T10:07:47.386Z,69024
2017-09-17T10:08:47.389Z,49184
2017-09-17T10:09:47.421Z,45344
2017-09-17T10:10:47.386Z,45216
2017-09-17T10:11:47.362Z,46272
2017-09-17T10:12:47.365Z,49280
2017-09-17T10:13:47.361Z,60864
2017-09-17T10:14:47.391Z,123968
2017-09-17T10:15:47.438Z,84960
2017-09-17T10:16:47.378Z,88864
2017-09-17T10:17:47.412Z,92736
2017-09-17T10:18:47.434Z,144160
2017-09-17T10:19:47.461Z,154816
2017-09-17T10:20:47.414Z,147712
2017-09-17T10:21:47.384Z,145984
2017-09-17T10:22:47.473Z,102304
2017-09-17T10:23:47.399Z,136768
2017-09-17T10:24:47.401Z,123520
2017-09-17T10:25:47.415Z,69824
2017-09-17T10:26:47.400Z,130560
2017-09-17T10:27:47.462Z,67200
2017-09-17T10:28:47.447Z,54144
2017-09-17T10:29:47.422Z,142240
2017-09-17T10:30:47.487Z,142304
2017-09-17T10:31:47.440Z,140032
2017-09-17T10:32:47.420Z,141664
2017-09-17T10:33:47.437Z,139008
2017-09-17T10:34:47.494Z,136672
2017-09-17T10:35:47.379Z,137760
2017-09-17T10:36:47.404Z,136864
2017-09-17T10:37:47.496Z,135360
2017-09-17T10:38:47.400Z,137536
2017-09-17T10:39:47.437Z,143424
2017-09-17T10:40:47.413Z,143328
2017-09-17T10:41:47.439Z,141024
2017-09-17T10:42:47.382Z,122176
2017-09-17T10:43:47.408Z,135104
2017-09-17T10:44:47.382Z,104832
2017-09-17T10:45:47.493Z,76192
2017-09-17T10:46:47.415Z,142080
2017-09-17T10:47:47.473Z,142048
2017-09-17T10:48:47.469Z,140768
2017-09-17T10:49:47.455Z,95680
2017-09-17T10:50:47.395Z,97216
2017-09-17T10:51:47.458Z,42880
2017-09-17T10:52:47.493Z,73056
2017-09-17T10:53:47.498Z,98976
2017-09-17T10:54:47.520Z,57024
2017-09-17T10:55:47.480Z,49888
2017-09-17T10:56:47.416Z,75040
2017-09-17T10:57:47.491Z,138048
2017-09-17T10:58:47.396Z,128448
2017-09-17T10:59:47.467Z,125600
2017-09-17T11:00:47.464Z,130336
2017-09-17T11:01:47.483Z,98848
2017-09-17T11:02:47.487Z,137952
2017-09-17T11:03:47.451Z,135840
2017-09-17T11:04:47.463Z,134784
2017-09-17T11:05:47.405Z,129664
2017-09-17T11:06:47.461Z,123136
2017-09-17T11:07:47.513Z,124544
2017-09-17T11:08:47.461Z,125504
2017-09-17T11:09:47.509Z,128256
2017-09-17T11:10:47.429Z,127456
2017-09-17T11:11:47.431Z,131776
2017-09-17T11:12:47.465Z,130560
2017-09-17T11:13:47.479Z,129152
2017-09-17T11:14:47.490Z,129216
2017-09-17T11:15:47.511Z,132128
2017-09-17T11:16:47.446Z,140800
2017-09-17T11:17:47.512Z,73312
2017-09-17T11:18:47.472Z,60448
2017-09-17T11:19:47.448Z,143104
2017-09-17T11:20:47.513Z,46176
2017-09-17T11:21:47.491Z,33216
2017-09-17T11:22:47.511Z,30560
2017-09-17T11:23:47.465Z,28256
2017-09-17T11:24:47.473Z,25696
2017-09-17T11:26:47.442Z,27936
2017-09-17T11:27:47.449Z,32064
2017-09-17T11:28:47.502Z,119040
2017-09-17T11:29:47.451Z,140544
2017-09-17T11:30:47.445Z,142560
2017-09-17T11:31:47.420Z,145344
2017-09-17T11:32:47.513Z,145312
2017-09-17T11:33:47.512Z,144608
2017-09-17T11:34:47.443Z,141344
2017-09-17T11:35:47.436Z,137024
2017-09-17T11:36:47.415Z,131968
2017-09-17T11:37:47.414Z,128768
2017-09-17T11:38:47.416Z,131168
2017-09-17T11:39:47.438Z,47584
2017-09-17T11:40:47.474Z,60800
2017-09-17T11:41:47.445Z,53664
2017-09-17T11:42:47.478Z,112704
2017-09-17T11:43:47.481Z,85504
2017-09-17T11:44:47.477Z,64384
2017-09-17T11:45:47.488Z,70528
2017-09-17T11:46:47.489Z,59296
2017-09-17T11:47:47.500Z,52864
2017-09-17T11:48:47.479Z,57280
2017-09-17T11:49:47.531Z,92224
2017-09-17T11:51:47.514Z,76192
2017-09-17T11:52:47.538Z,85632
2017-09-17T11:53:47.472Z,82720
2017-09-17T11:54:47.534Z,74048
2017-09-17T11:55:47.503Z,64960
2017-09-17T11:56:47.543Z,67424
2017-09-17T11:57:47.545Z,68992
2017-09-17T11:58:47.559Z,68576
2017-09-17T11:59:47.444Z,67200
2017-09-17T12:00:47.518Z,66304
2017-09-17T12:01:47.537Z,64352
2017-09-17T12:02:47.535Z,64384
2017-09-17T12:03:47.442Z,62560
2017-09-17T12:04:47.439Z,61216
2017-09-17T12:05:47.559Z,62208
2017-09-17T12:06:47.478Z,58272
2017-09-17T12:07:47.496Z,56288
2017-09-17T12:08:47.511Z,57216
2017-09-17T12:09:47.539Z,57216
2017-09-17T12:10:47.499Z,60512
2017-09-17T12:11:47.482Z,61184
2017-09-17T12:12:47.550Z,60160
2017-09-17T12:13:47.502Z,57760
2017-09-17T12:14:47.471Z,54304
2017-09-17T12:15:47.503Z,52864
2017-09-17T12:16:47.505Z,54016
2017-09-17T12:17:47.573Z,60672
2017-09-17T12:18:47.556Z,68128
2017-09-17T12:19:47.482Z,68000
2017-09-17T12:20:47.573Z,54784
2017-09-17T12:21:47.531Z,52288
2017-09-17T12:22:47.508Z,53856
2017-09-17T12:23:47.486Z,56832
2017-09-17T12:24:47.506Z,67168
2017-09-17T12:25:47.491Z,63872
2017-09-17T12:26:47.511Z,90400
2017-09-17T12:27:47.510Z,76608
2017-09-17T12:28:47.508Z,107328
2017-09-17T12:29:47.513Z,116800
2017-09-17T12:30:47.558Z,121440
2017-09-17T12:31:47.577Z,73696
2017-09-17T12:32:47.478Z,62368
2017-09-17T12:33:47.582Z,50432
2017-09-17T12:34:47.462Z,51488
2017-09-17T12:35:47.511Z,67200
2017-09-17T12:36:47.478Z,121120
2017-09-17T12:37:47.580Z,116800
2017-09-17T12:38:47.502Z,110624
2017-09-17T12:39:47.519Z,70496
2017-09-17T12:40:47.513Z,94848
2017-09-17T12:41:47.565Z,100384
2017-09-17T12:42:47.460Z,96640
2017-09-17T12:43:47.480Z,91072
2017-09-17T12:44:47.523Z,98720
2017-09-17T12:45:47.466Z,100576
2017-09-17T12:46:47.523Z,97792
2017-09-17T12:47:47.553Z,81664
2017-09-17T12:48:47.558Z,99520
2017-09-17T12:49:47.463Z,109600
2017-09-17T12:50:47.534Z,111680
2017-09-17T12:51:47.488Z,92032
2017-09-17T12:52:47.529Z,63488
2017-09-17T12:53:47.556Z,97760
2017-09-17T12:54:47.561Z,61120
2017-09-17T12:55:47.567Z,64960
2017-09-17T12:56:47.488Z,81056
2017-09-17T12:57:47.529Z,128768
2017-09-17T12:58:47.532Z,128896
2017-09-17T12:59:47.572Z,123744
2017-09-17T13:00:47.492Z,116320
2017-09-17T13:01:47.496Z,114688
2017-09-17T13:02:47.575Z,113664
2017-09-17T13:03:47.527Z,116768
2017-09-17T13:04:47.508Z,119680
2017-09-17T13:05:47.535Z,120864
2017-09-17T13:06:47.561Z,118656
2017-09-17T13:07:47.507Z,114624
2017-09-17T13:08:47.539Z,108928
2017-09-17T13:09:47.526Z,98240
2017-09-17T13:10:47.482Z,100608
2017-09-17T13:11:47.578Z,104320
2017-09-17T13:12:47.507Z,86976
2017-09-17T13:13:47.497Z,99840
2017-09-17T13:14:47.477Z,76480
2017-09-17T13:15:47.485Z,82912
2017-09-17T13:16:47.565Z,93440
2017-09-17T13:17:47.529Z,93280
2017-09-17T13:18:47.540Z,98048
2017-09-17T13:19:47.541Z,100768
2017-09-17T13:20:47.533Z,86080
2017-09-17T13:21:47.479Z,78208
2017-09-17T13:22:47.515Z,68416
2017-09-17T13:23:47.569Z,54240
2017-09-17T13:24:47.492Z,47552
2017-09-17T13:25:47.526Z,40416
2017-09-17T13:26:47.590Z,34368
2017-09-17T13:27:47.594Z,28640
2017-09-17T13:28:47.593Z,25440
2017-09-17T13:29:47.547Z,24736
2017-09-17T13:30:47.505Z,24544
2017-09-17T13:31:47.541Z,24544